Terminal Aerodrome Forecast
Issued by NWS

Home | Current Version | Previous Version | Text Only | Print | Product List | Glossary On
Versions: 1 2 3 4 5 6 7 8 9 10 11 12
000
FTUS43 KFGF 251100 RRA
TAFTVF
TAF
KTVF 251141Z 2512/2612 27010KT P6SM SKC
     FM251600 31013G18KT P6SM SCT250
     FM260000 VRB03KT P6SM SKC
      AMD LTD TO CLD VIS AND WIND=

USA.gov is the U.S. government's official web portal to all federal, state and local government web resources and services.